sensor_id;sensor_type;location;lat;lon;timestamp;temperature;humidity
42743;DHT22;28397;44.552;-0.848;2023-02-24T00:01:24;5.50;99.90
42743;DHT22;28397;44.552;-0.848;2023-02-24T00:03:57;5.50;99.90
42743;DHT22;28397;44.552;-0.848;2023-02-24T00:06:27;5.50;99.90
42743;DHT22;28397;44.552;-0.848;2023-02-24T00:09:03;5.40;99.90
42743;DHT22;28397;44.552;-0.848;2023-02-24T00:11:30;5.40;99.90
42743;DHT22;28397;44.552;-0.848;2023-02-24T00:13:56;5.50;99.90
42743;DHT22;28397;44.552;-0.848;2023-02-24T00:16:23;5.50;99.90
42743;DHT22;28397;44.552;-0.848;2023-02-24T00:18:50;5.50;99.90
42743;DHT22;28397;44.552;-0.848;2023-02-24T00:21:16;5.50;99.90
42743;DHT22;28397;44.552;-0.848;2023-02-24T00:23:44;5.50;99.90
42743;DHT22;28397;44.552;-0.848;2023-02-24T00:26:14;5.60;99.90
42743;DHT22;28397;44.552;-0.848;2023-02-24T00:28:40;5.60;99.90
42743;DHT22;28397;44.552;-0.848;2023-02-24T00:31:09;5.50;99.90
42743;DHT22;28397;44.552;-0.848;2023-02-24T00:33:35;5.50;99.90
42743;DHT22;28397;44.552;-0.848;2023-02-24T00:36:20;5.40;99.90
42743;DHT22;28397;44.552;-0.848;2023-02-24T00:38:53;5.40;99.90
42743;DHT22;28397;44.552;-0.848;2023-02-24T00:41:22;5.40;99.90
42743;DHT22;28397;44.552;-0.848;2023-02-24T00:43:49;5.40;99.90
42743;DHT22;28397;44.552;-0.848;2023-02-24T00:46:19;5.40;99.90
42743;DHT22;28397;44.552;-0.848;2023-02-24T00:48:47;5.40;99.90
42743;DHT22;28397;44.552;-0.848;2023-02-24T00:51:15;5.40;99.90
42743;DHT22;28397;44.552;-0.848;2023-02-24T00:53:43;5.40;99.90
42743;DHT22;28397;44.552;-0.848;2023-02-24T00:56:10;5.50;99.90
42743;DHT22;28397;44.552;-0.848;2023-02-24T00:58:41;5.50;99.90
42743;DHT22;28397;44.552;-0.848;2023-02-24T01:01:12;5.40;99.90
42743;DHT22;28397;44.552;-0.848;2023-02-24T01:03:39;5.30;99.90
42743;DHT22;28397;44.552;-0.848;2023-02-24T01:06:06;5.40;99.90
42743;DHT22;28397;44.552;-0.848;2023-02-24T01:08:32;5.40;99.90
42743;DHT22;28397;44.552;-0.848;2023-02-24T01:11:02;5.40;99.90
42743;DHT22;28397;44.552;-0.848;2023-02-24T01:13:46;5.30;99.90
42743;DHT22;28397;44.552;-0.848;2023-02-24T01:16:12;5.50;99.90
42743;DHT22;28397;44.552;-0.848;2023-02-24T01:18:40;5.40;99.90
42743;DHT22;28397;44.552;-0.848;2023-02-24T01:21:06;5.50;99.90
42743;DHT22;28397;44.552;-0.848;2023-02-24T01:23:32;5.40;99.90
42743;DHT22;28397;44.552;-0.848;2023-02-24T01:25:57;5.50;99.90
42743;DHT22;28397;44.552;-0.848;2023-02-24T01:28:27;5.40;99.90
42743;DHT22;28397;44.552;-0.848;2023-02-24T01:30:53;5.30;99.90
42743;DHT22;28397;44.552;-0.848;2023-02-24T01:33:20;5.30;99.90
42743;DHT22;28397;44.552;-0.848;2023-02-24T01:35:46;5.40;99.90
42743;DHT22;28397;44.552;-0.848;2023-02-24T01:38:12;5.30;99.90
42743;DHT22;28397;44.552;-0.848;2023-02-24T01:40:38;5.40;99.90
42743;DHT22;28397;44.552;-0.848;2023-02-24T01:43:04;5.40;99.90
42743;DHT22;28397;44.552;-0.848;2023-02-24T01:45:33;5.30;99.90
42743;DHT22;28397;44.552;-0.848;2023-02-24T01:48:03;5.30;99.90
42743;DHT22;28397;44.552;-0.848;2023-02-24T01:50:32;5.40;99.90
42743;DHT22;28397;44.552;-0.848;2023-02-24T01:53:01;5.30;99.90
42743;DHT22;28397;44.552;-0.848;2023-02-24T01:55:35;5.30;99.90
42743;DHT22;28397;44.552;-0.848;2023-02-24T01:58:07;5.30;99.90
42743;DHT22;28397;44.552;-0.848;2023-02-24T02:00:38;5.30;99.90
42743;DHT22;28397;44.552;-0.848;2023-02-24T02:03:31;5.30;99.90
42743;DHT22;28397;44.552;-0.848;2023-02-24T02:06:07;5.10;99.90
42743;DHT22;28397;44.552;-0.848;2023-02-24T02:08:35;5.20;99.90
42743;DHT22;28397;44.552;-0.848;2023-02-24T02:11:06;5.30;99.90
42743;DHT22;28397;44.552;-0.848;2023-02-24T02:13:33;5.30;99.90
42743;DHT22;28397;44.552;-0.848;2023-02-24T02:18:53;5.10;99.90
42743;DHT22;28397;44.552;-0.848;2023-02-24T02:27:21;5.20;99.90
42743;DHT22;28397;44.552;-0.848;2023-02-24T02:35:37;5.10;99.90
42743;DHT22;28397;44.552;-0.848;2023-02-24T02:41:26;5.10;99.90
42743;DHT22;28397;44.552;-0.848;2023-02-24T02:44:10;5.20;99.90
42743;DHT22;28397;44.552;-0.848;2023-02-24T02:46:45;5.20;99.90
42743;DHT22;28397;44.552;-0.848;2023-02-24T02:49:20;5.20;99.90
42743;DHT22;28397;44.552;-0.848;2023-02-24T02:51:50;5.20;99.90
42743;DHT22;28397;44.552;-0.848;2023-02-24T02:57:19;5.10;99.90
42743;DHT22;28397;44.552;-0.848;2023-02-24T02:59:54;5.10;99.90
42743;DHT22;28397;44.552;-0.848;2023-02-24T03:02:24;5.20;99.90
42743;DHT22;28397;44.552;-0.848;2023-02-24T03:04:55;5.00;99.90
42743;DHT22;28397;44.552;-0.848;2023-02-24T03:07:27;5.10;99.90
42743;DHT22;28397;44.552;-0.848;2023-02-24T03:09:59;5.10;99.90
42743;DHT22;28397;44.552;-0.848;2023-02-24T03:12:28;5.30;99.90
42743;DHT22;28397;44.552;-0.848;2023-02-24T03:15:01;5.40;99.90
42743;DHT22;28397;44.552;-0.848;2023-02-24T03:17:31;5.40;99.90
42743;DHT22;28397;44.552;-0.848;2023-02-24T03:20:05;5.30;99.90
42743;DHT22;28397;44.552;-0.848;2023-02-24T03:23:02;5.20;99.90
42743;DHT22;28397;44.552;-0.848;2023-02-24T03:25:53;5.20;99.90
42743;DHT22;28397;44.552;-0.848;2023-02-24T03:34:33;5.20;99.90
42743;DHT22;28397;44.552;-0.848;2023-02-24T03:36:56;5.10;99.90
42743;DHT22;28397;44.552;-0.848;2023-02-24T03:39:23;5.20;99.90
42743;DHT22;28397;44.552;-0.848;2023-02-24T03:42:16;5.30;99.90
42743;DHT22;28397;44.552;-0.848;2023-02-24T03:44:43;5.20;99.90
42743;DHT22;28397;44.552;-0.848;2023-02-24T03:47:10;5.20;99.90
42743;DHT22;28397;44.552;-0.848;2023-02-24T03:49:36;5.10;99.90
42743;DHT22;28397;44.552;-0.848;2023-02-24T03:52:27;5.20;99.90
42743;DHT22;28397;44.552;-0.848;2023-02-24T03:55:15;5.30;99.90
42743;DHT22;28397;44.552;-0.848;2023-02-24T04:06:19;5.20;99.90
42743;DHT22;28397;44.552;-0.848;2023-02-24T04:09:10;5.30;99.90
42743;DHT22;28397;44.552;-0.848;2023-02-24T04:11:49;5.20;99.90
42743;DHT22;28397;44.552;-0.848;2023-02-24T04:14:22;5.20;99.90
42743;DHT22;28397;44.552;-0.848;2023-02-24T04:17:07;5.20;99.90
42743;DHT22;28397;44.552;-0.848;2023-02-24T04:19:38;5.30;99.90
42743;DHT22;28397;44.552;-0.848;2023-02-24T04:22:09;5.20;99.90
42743;DHT22;28397;44.552;-0.848;2023-02-24T04:24:37;5.40;99.90
42743;DHT22;28397;44.552;-0.848;2023-02-24T04:27:05;5.30;99.90
42743;DHT22;28397;44.552;-0.848;2023-02-24T04:29:37;5.30;99.90
42743;DHT22;28397;44.552;-0.848;2023-02-24T04:32:07;5.20;99.90
42743;DHT22;28397;44.552;-0.848;2023-02-24T04:34:34;5.20;99.90
42743;DHT22;28397;44.552;-0.848;2023-02-24T04:37:00;5.20;99.90
42743;DHT22;28397;44.552;-0.848;2023-02-24T04:39:27;5.20;99.90
42743;DHT22;28397;44.552;-0.848;2023-02-24T04:41:53;5.20;99.90
42743;DHT22;28397;44.552;-0.848;2023-02-24T04:44:20;5.30;99.90
42743;DHT22;28397;44.552;-0.848;2023-02-24T04:46:48;5.30;99.90
42743;DHT22;28397;44.552;-0.848;2023-02-24T04:49:15;5.20;99.90
42743;DHT22;28397;44.552;-0.848;2023-02-24T04:51:41;5.20;99.90
42743;DHT22;28397;44.552;-0.848;2023-02-24T04:54:14;5.20;99.90
42743;DHT22;28397;44.552;-0.848;2023-02-24T04:56:49;5.20;99.90
42743;DHT22;28397;44.552;-0.848;2023-02-24T04:59:15;5.20;99.90
42743;DHT22;28397;44.552;-0.848;2023-02-24T05:01:42;5.10;99.90
42743;DHT22;28397;44.552;-0.848;2023-02-24T05:04:09;5.20;99.90
42743;DHT22;28397;44.552;-0.848;2023-02-24T05:06:36;5.30;99.90
42743;DHT22;28397;44.552;-0.848;2023-02-24T05:09:15;5.30;99.90
42743;DHT22;28397;44.552;-0.848;2023-02-24T05:11:45;5.30;99.90
42743;DHT22;28397;44.552;-0.848;2023-02-24T05:14:12;5.30;99.90
42743;DHT22;28397;44.552;-0.848;2023-02-24T05:16:41;5.40;99.90
42743;DHT22;28397;44.552;-0.848;2023-02-24T05:19:11;5.40;99.90
42743;DHT22;28397;44.552;-0.848;2023-02-24T05:21:55;5.40;99.90
42743;DHT22;28397;44.552;-0.848;2023-02-24T05:24:24;5.30;99.90
42743;DHT22;28397;44.552;-0.848;2023-02-24T05:26:51;5.40;99.90
42743;DHT22;28397;44.552;-0.848;2023-02-24T05:29:28;5.40;99.90
42743;DHT22;28397;44.552;-0.848;2023-02-24T05:31:55;5.60;99.90
42743;DHT22;28397;44.552;-0.848;2023-02-24T05:34:25;5.50;99.90
42743;DHT22;28397;44.552;-0.848;2023-02-24T05:36:51;5.50;99.90
42743;DHT22;28397;44.552;-0.848;2023-02-24T05:39:19;5.40;99.90
42743;DHT22;28397;44.552;-0.848;2023-02-24T05:41:46;5.50;99.90
42743;DHT22;28397;44.552;-0.848;2023-02-24T05:44:21;5.50;99.90
42743;DHT22;28397;44.552;-0.848;2023-02-24T05:46:55;5.50;99.90
42743;DHT22;28397;44.552;-0.848;2023-02-24T05:49:28;5.50;99.90
42743;DHT22;28397;44.552;-0.848;2023-02-24T05:51:59;5.50;99.90
42743;DHT22;28397;44.552;-0.848;2023-02-24T05:54:29;5.50;99.90
42743;DHT22;28397;44.552;-0.848;2023-02-24T05:57:03;5.60;99.90
42743;DHT22;28397;44.552;-0.848;2023-02-24T05:59:30;5.50;99.90
42743;DHT22;28397;44.552;-0.848;2023-02-24T06:02:00;5.50;99.90
42743;DHT22;28397;44.552;-0.848;2023-02-24T06:04:35;5.60;99.90
42743;DHT22;28397;44.552;-0.848;2023-02-24T06:07:11;5.60;99.90
42743;DHT22;28397;44.552;-0.848;2023-02-24T06:09:48;5.70;99.90
42743;DHT22;28397;44.552;-0.848;2023-02-24T06:12:15;5.80;99.90
42743;DHT22;28397;44.552;-0.848;2023-02-24T06:14:41;5.70;99.90
42743;DHT22;28397;44.552;-0.848;2023-02-24T06:17:07;5.70;99.90
42743;DHT22;28397;44.552;-0.848;2023-02-24T06:19:33;5.70;99.90
42743;DHT22;28397;44.552;-0.848;2023-02-24T06:22:00;5.80;99.90
42743;DHT22;28397;44.552;-0.848;2023-02-24T06:24:31;5.90;99.90
42743;DHT22;28397;44.552;-0.848;2023-02-24T06:26:58;5.80;99.90
42743;DHT22;28397;44.552;-0.848;2023-02-24T06:29:28;5.80;99.90
42743;DHT22;28397;44.552;-0.848;2023-02-24T06:31:55;5.70;99.90
42743;DHT22;28397;44.552;-0.848;2023-02-24T06:34:22;5.80;99.90
42743;DHT22;28397;44.552;-0.848;2023-02-24T06:36:50;5.80;99.90
42743;DHT22;28397;44.552;-0.848;2023-02-24T06:39:17;5.80;99.90
42743;DHT22;28397;44.552;-0.848;2023-02-24T06:41:43;5.80;99.90
42743;DHT22;28397;44.552;-0.848;2023-02-24T06:44:09;5.80;99.90
42743;DHT22;28397;44.552;-0.848;2023-02-24T06:46:35;5.70;99.90
42743;DHT22;28397;44.552;-0.848;2023-02-24T06:49:01;5.70;99.90
42743;DHT22;28397;44.552;-0.848;2023-02-24T06:51:27;5.80;99.90
42743;DHT22;28397;44.552;-0.848;2023-02-24T06:53:58;5.80;99.90
42743;DHT22;28397;44.552;-0.848;2023-02-24T06:56:24;5.80;99.90
42743;DHT22;28397;44.552;-0.848;2023-02-24T06:58:53;5.80;99.90
42743;DHT22;28397;44.552;-0.848;2023-02-24T07:01:25;5.90;99.90
42743;DHT22;28397;44.552;-0.848;2023-02-24T07:03:52;6.00;99.90
42743;DHT22;28397;44.552;-0.848;2023-02-24T07:06:44;6.10;99.90
42743;DHT22;28397;44.552;-0.848;2023-02-24T07:09:14;6.00;99.90
42743;DHT22;28397;44.552;-0.848;2023-02-24T07:11:42;6.00;99.90
42743;DHT22;28397;44.552;-0.848;2023-02-24T07:14:09;6.10;99.90
42743;DHT22;28397;44.552;-0.848;2023-02-24T07:16:36;6.20;99.90
42743;DHT22;28397;44.552;-0.848;2023-02-24T07:19:06;6.20;99.90
42743;DHT22;28397;44.552;-0.848;2023-02-24T07:21:36;6.20;99.90
42743;DHT22;28397;44.552;-0.848;2023-02-24T07:24:07;6.30;99.90
42743;DHT22;28397;44.552;-0.848;2023-02-24T07:26:33;6.30;99.90
42743;DHT22;28397;44.552;-0.848;2023-02-24T07:28:59;6.40;99.90
42743;DHT22;28397;44.552;-0.848;2023-02-24T07:31:29;6.40;99.90
42743;DHT22;28397;44.552;-0.848;2023-02-24T07:33:57;6.50;99.90
42743;DHT22;28397;44.552;-0.848;2023-02-24T07:36:25;6.50;99.90
42743;DHT22;28397;44.552;-0.848;2023-02-24T07:38:55;6.50;99.90
42743;DHT22;28397;44.552;-0.848;2023-02-24T07:41:26;6.60;99.90
42743;DHT22;28397;44.552;-0.848;2023-02-24T07:43:53;6.70;99.90
42743;DHT22;28397;44.552;-0.848;2023-02-24T07:46:25;6.70;99.90
42743;DHT22;28397;44.552;-0.848;2023-02-24T07:48:53;6.80;99.90
42743;DHT22;28397;44.552;-0.848;2023-02-24T07:51:24;6.80;99.90
42743;DHT22;28397;44.552;-0.848;2023-02-24T07:53:53;6.90;99.90
42743;DHT22;28397;44.552;-0.848;2023-02-24T07:56:22;6.90;99.90
42743;DHT22;28397;44.552;-0.848;2023-02-24T07:59:01;6.90;99.90
42743;DHT22;28397;44.552;-0.848;2023-02-24T08:01:30;6.90;99.90
42743;DHT22;28397;44.552;-0.848;2023-02-24T08:04:04;6.90;99.90
42743;DHT22;28397;44.552;-0.848;2023-02-24T08:06:34;6.90;99.90
42743;DHT22;28397;44.552;-0.848;2023-02-24T08:09:09;7.00;99.90
42743;DHT22;28397;44.552;-0.848;2023-02-24T08:11:46;7.00;99.90
42743;DHT22;28397;44.552;-0.848;2023-02-24T08:14:14;7.00;99.90
42743;DHT22;28397;44.552;-0.848;2023-02-24T08:16:44;7.00;99.90
42743;DHT22;28397;44.552;-0.848;2023-02-24T08:19:12;7.00;99.90
42743;DHT22;28397;44.552;-0.848;2023-02-24T08:21:42;6.90;99.90
42743;DHT22;28397;44.552;-0.848;2023-02-24T08:24:24;6.90;99.90
42743;DHT22;28397;44.552;-0.848;2023-02-24T08:26:55;6.90;99.90
42743;DHT22;28397;44.552;-0.848;2023-02-24T08:29:31;6.90;99.90
42743;DHT22;28397;44.552;-0.848;2023-02-24T08:32:05;6.90;99.90
42743;DHT22;28397;44.552;-0.848;2023-02-24T08:34:31;7.00;99.90
42743;DHT22;28397;44.552;-0.848;2023-02-24T08:36:57;6.90;99.90
42743;DHT22;28397;44.552;-0.848;2023-02-24T08:39:23;7.00;99.90
42743;DHT22;28397;44.552;-0.848;2023-02-24T08:41:48;6.90;99.90
42743;DHT22;28397;44.552;-0.848;2023-02-24T08:44:19;7.00;99.90
42743;DHT22;28397;44.552;-0.848;2023-02-24T08:46:46;6.90;99.90
42743;DHT22;28397;44.552;-0.848;2023-02-24T08:49:14;6.80;99.90
42743;DHT22;28397;44.552;-0.848;2023-02-24T08:51:45;6.80;99.90
42743;DHT22;28397;44.552;-0.848;2023-02-24T08:54:20;6.80;99.90
42743;DHT22;28397;44.552;-0.848;2023-02-24T08:56:53;6.80;99.90
42743;DHT22;28397;44.552;-0.848;2023-02-24T08:59:26;6.90;99.90
42743;DHT22;28397;44.552;-0.848;2023-02-24T09:02:31;6.90;99.90
42743;DHT22;28397;44.552;-0.848;2023-02-24T09:05:06;7.00;99.90
42743;DHT22;28397;44.552;-0.848;2023-02-24T09:07:38;6.90;99.90
42743;DHT22;28397;44.552;-0.848;2023-02-24T09:10:11;7.00;99.90
42743;DHT22;28397;44.552;-0.848;2023-02-24T09:12:42;6.90;99.90
42743;DHT22;28397;44.552;-0.848;2023-02-24T09:15:09;7.00;99.90
42743;DHT22;28397;44.552;-0.848;2023-02-24T09:17:35;7.10;99.90
42743;DHT22;28397;44.552;-0.848;2023-02-24T09:20:16;7.10;99.90
42743;DHT22;28397;44.552;-0.848;2023-02-24T09:23:10;7.20;99.90
42743;DHT22;28397;44.552;-0.848;2023-02-24T09:25:45;7.20;99.90
42743;DHT22;28397;44.552;-0.848;2023-02-24T09:28:23;7.30;99.90
42743;DHT22;28397;44.552;-0.848;2023-02-24T09:31:00;7.30;99.90
42743;DHT22;28397;44.552;-0.848;2023-02-24T09:33:36;7.50;99.90
42743;DHT22;28397;44.552;-0.848;2023-02-24T09:36:16;7.50;99.90
42743;DHT22;28397;44.552;-0.848;2023-02-24T09:38:57;7.70;99.90
42743;DHT22;28397;44.552;-0.848;2023-02-24T09:41:27;7.80;99.90
42743;DHT22;28397;44.552;-0.848;2023-02-24T09:44:13;8.00;99.90
42743;DHT22;28397;44.552;-0.848;2023-02-24T09:52:15;8.60;99.90
42743;DHT22;28397;44.552;-0.848;2023-02-24T09:54:51;8.70;99.90
42743;DHT22;28397;44.552;-0.848;2023-02-24T10:00:39;9.10;99.90
42743;DHT22;28397;44.552;-0.848;2023-02-24T10:11:17;9.80;99.90
42743;DHT22;28397;44.552;-0.848;2023-02-24T10:13:59;9.60;99.90
42743;DHT22;28397;44.552;-0.848;2023-02-24T10:16:26;9.60;99.90
42743;DHT22;28397;44.552;-0.848;2023-02-24T10:19:14;9.50;99.90
42743;DHT22;28397;44.552;-0.848;2023-02-24T10:22:56;9.60;99.90
42743;DHT22;28397;44.552;-0.848;2023-02-24T10:27:53;10.50;99.90
42743;DHT22;28397;44.552;-0.848;2023-02-24T10:30:57;10.50;99.90
42743;DHT22;28397;44.552;-0.848;2023-02-24T10:33:37;10.60;99.90
42743;DHT22;28397;44.552;-0.848;2023-02-24T10:36:17;10.70;99.90
42743;DHT22;28397;44.552;-0.848;2023-02-24T10:38:44;10.50;99.90
42743;DHT22;28397;44.552;-0.848;2023-02-24T10:41:10;10.50;99.90
42743;DHT22;28397;44.552;-0.848;2023-02-24T10:43:37;10.70;99.90
42743;DHT22;28397;44.552;-0.848;2023-02-24T10:48:56;10.60;99.90
42743;DHT22;28397;44.552;-0.848;2023-02-24T10:51:31;10.40;99.90
42743;DHT22;28397;44.552;-0.848;2023-02-24T10:54:24;10.50;99.90
42743;DHT22;28397;44.552;-0.848;2023-02-24T10:57:03;10.70;99.90
42743;DHT22;28397;44.552;-0.848;2023-02-24T10:59:48;10.70;99.90
42743;DHT22;28397;44.552;-0.848;2023-02-24T11:02:49;11.40;99.90
42743;DHT22;28397;44.552;-0.848;2023-02-24T11:05:24;11.50;99.90
42743;DHT22;28397;44.552;-0.848;2023-02-24T11:08:23;11.30;99.90
42743;DHT22;28397;44.552;-0.848;2023-02-24T11:11:17;10.90;99.90
42743;DHT22;28397;44.552;-0.848;2023-02-24T11:13:55;10.80;99.90
42743;DHT22;28397;44.552;-0.848;2023-02-24T11:19:47;10.40;99.90
42743;DHT22;28397;44.552;-0.848;2023-02-24T11:22:21;10.50;99.90
42743;DHT22;28397;44.552;-0.848;2023-02-24T11:24:49;10.60;99.90
42743;DHT22;28397;44.552;-0.848;2023-02-24T11:27:19;10.50;99.90
42743;DHT22;28397;44.552;-0.848;2023-02-24T11:32:39;10.80;99.90
42743;DHT22;28397;44.552;-0.848;2023-02-24T11:38:23;11.50;99.90
42743;DHT22;28397;44.552;-0.848;2023-02-24T11:43:39;12.00;99.90
42743;DHT22;28397;44.552;-0.848;2023-02-24T11:46:21;11.60;99.90
42743;DHT22;28397;44.552;-0.848;2023-02-24T11:48:55;11.40;99.90
42743;DHT22;28397;44.552;-0.848;2023-02-24T11:51:30;11.10;99.90
42743;DHT22;28397;44.552;-0.848;2023-02-24T11:54:01;11.00;99.90
42743;DHT22;28397;44.552;-0.848;2023-02-24T11:56:38;11.60;99.90
42743;DHT22;28397;44.552;-0.848;2023-02-24T11:59:38;11.70;99.90
42743;DHT22;28397;44.552;-0.848;2023-02-24T12:02:14;11.40;99.90
42743;DHT22;28397;44.552;-0.848;2023-02-24T12:05:12;11.30;99.90
42743;DHT22;28397;44.552;-0.848;2023-02-24T12:07:44;11.50;99.90
42743;DHT22;28397;44.552;-0.848;2023-02-24T12:10:43;11.30;99.90
42743;DHT22;28397;44.552;-0.848;2023-02-24T12:13:22;11.40;99.90
42743;DHT22;28397;44.552;-0.848;2023-02-24T12:16:16;11.20;99.90
42743;DHT22;28397;44.552;-0.848;2023-02-24T12:19:11;10.90;99.90
42743;DHT22;28397;44.552;-0.848;2023-02-24T12:21:41;10.80;99.90
42743;DHT22;28397;44.552;-0.848;2023-02-24T12:24:11;11.00;99.90
42743;DHT22;28397;44.552;-0.848;2023-02-24T12:27:14;11.10;99.90
42743;DHT22;28397;44.552;-0.848;2023-02-24T12:29:52;11.10;99.90
42743;DHT22;28397;44.552;-0.848;2023-02-24T12:32:36;10.90;99.90
42743;DHT22;28397;44.552;-0.848;2023-02-24T12:35:15;10.90;99.90
42743;DHT22;28397;44.552;-0.848;2023-02-24T12:41:04;10.70;99.90
42743;DHT22;28397;44.552;-0.848;2023-02-24T12:46:25;10.50;99.90
42743;DHT22;28397;44.552;-0.848;2023-02-24T12:59:52;10.80;99.90
42743;DHT22;28397;44.552;-0.848;2023-02-24T13:05:09;11.00;99.90
42743;DHT22;28397;44.552;-0.848;2023-02-24T13:10:28;11.00;99.90
42743;DHT22;28397;44.552;-0.848;2023-02-24T13:13:26;11.00;99.90
42743;DHT22;28397;44.552;-0.848;2023-02-24T13:15:56;11.00;99.90
42743;DHT22;28397;44.552;-0.848;2023-02-24T13:18:34;10.70;99.90
42743;DHT22;28397;44.552;-0.848;2023-02-24T13:21:21;10.70;99.90
42743;DHT22;28397;44.552;-0.848;2023-02-24T13:23:56;10.50;99.90
42743;DHT22;28397;44.552;-0.848;2023-02-24T13:26:24;10.50;99.90
42743;DHT22;28397;44.552;-0.848;2023-02-24T13:29:09;10.40;99.90
42743;DHT22;28397;44.552;-0.848;2023-02-24T13:31:50;10.60;99.90
42743;DHT22;28397;44.552;-0.848;2023-02-24T13:34:29;10.70;99.90
42743;DHT22;28397;44.552;-0.848;2023-02-24T13:36:55;10.70;99.90
42743;DHT22;28397;44.552;-0.848;2023-02-24T13:39:35;10.70;99.90
42743;DHT22;28397;44.552;-0.848;2023-02-24T13:42:29;10.70;99.90
42743;DHT22;28397;44.552;-0.848;2023-02-24T13:45:17;10.70;99.90
42743;DHT22;28397;44.552;-0.848;2023-02-24T13:50:22;10.90;99.90
42743;DHT22;28397;44.552;-0.848;2023-02-24T13:53:19;11.10;99.90
42743;DHT22;28397;44.552;-0.848;2023-02-24T14:01:55;11.20;99.90
42743;DHT22;28397;44.552;-0.848;2023-02-24T14:04:24;11.10;99.90
42743;DHT22;28397;44.552;-0.848;2023-02-24T14:06:54;11.00;99.90
42743;DHT22;28397;44.552;-0.848;2023-02-24T14:09:33;10.80;99.90
42743;DHT22;28397;44.552;-0.848;2023-02-24T14:12:04;10.70;99.90
42743;DHT22;28397;44.552;-0.848;2023-02-24T14:14:31;10.80;99.90
42743;DHT22;28397;44.552;-0.848;2023-02-24T14:16:57;10.90;99.90
42743;DHT22;28397;44.552;-0.848;2023-02-24T14:19:24;10.90;99.90
42743;DHT22;28397;44.552;-0.848;2023-02-24T14:21:55;10.80;99.90
42743;DHT22;28397;44.552;-0.848;2023-02-24T14:24:22;10.80;99.90
42743;DHT22;28397;44.552;-0.848;2023-02-24T14:26:57;10.60;99.90
42743;DHT22;28397;44.552;-0.848;2023-02-24T14:29:27;10.50;99.90
42743;DHT22;28397;44.552;-0.848;2023-02-24T14:31:57;10.50;99.90
42743;DHT22;28397;44.552;-0.848;2023-02-24T14:34:25;10.50;99.90
42743;DHT22;28397;44.552;-0.848;2023-02-24T14:36:57;10.50;99.90
42743;DHT22;28397;44.552;-0.848;2023-02-24T14:39:28;10.40;99.90
42743;DHT22;28397;44.552;-0.848;2023-02-24T14:42:11;10.50;99.90
42743;DHT22;28397;44.552;-0.848;2023-02-24T14:44:46;10.50;99.90
42743;DHT22;28397;44.552;-0.848;2023-02-24T14:47:15;10.60;99.90
42743;DHT22;28397;44.552;-0.848;2023-02-24T14:49:49;10.50;99.90
42743;DHT22;28397;44.552;-0.848;2023-02-24T14:52:36;10.50;99.90
42743;DHT22;28397;44.552;-0.848;2023-02-24T14:55:27;10.50;99.90
42743;DHT22;28397;44.552;-0.848;2023-02-24T14:58:13;10.60;99.90
42743;DHT22;28397;44.552;-0.848;2023-02-24T15:00:55;10.50;99.90
42743;DHT22;28397;44.552;-0.848;2023-02-24T15:03:35;10.40;99.90
42743;DHT22;28397;44.552;-0.848;2023-02-24T15:06:10;10.50;99.90
42743;DHT22;28397;44.552;-0.848;2023-02-24T15:08:44;10.40;99.90
42743;DHT22;28397;44.552;-0.848;2023-02-24T15:11:20;10.30;99.90
42743;DHT22;28397;44.552;-0.848;2023-02-24T15:13:54;10.30;99.90
42743;DHT22;28397;44.552;-0.848;2023-02-24T15:16:25;10.30;99.90
42743;DHT22;28397;44.552;-0.848;2023-02-24T15:18:55;10.30;99.90
42743;DHT22;28397;44.552;-0.848;2023-02-24T15:21:32;10.40;99.90
42743;DHT22;28397;44.552;-0.848;2023-02-24T15:24:03;10.40;99.90
42743;DHT22;28397;44.552;-0.848;2023-02-24T15:26:38;10.50;99.90
42743;DHT22;28397;44.552;-0.848;2023-02-24T15:29:18;10.50;99.90
42743;DHT22;28397;44.552;-0.848;2023-02-24T15:31:49;10.40;99.90
42743;DHT22;28397;44.552;-0.848;2023-02-24T15:34:19;10.40;99.90
42743;DHT22;28397;44.552;-0.848;2023-02-24T15:36:45;10.50;99.90
42743;DHT22;28397;44.552;-0.848;2023-02-24T15:39:21;10.60;99.90
42743;DHT22;28397;44.552;-0.848;2023-02-24T15:41:50;10.60;99.90
42743;DHT22;28397;44.552;-0.848;2023-02-24T15:44:33;10.60;99.90
42743;DHT22;28397;44.552;-0.848;2023-02-24T15:47:10;10.60;99.90
42743;DHT22;28397;44.552;-0.848;2023-02-24T15:49:36;10.60;99.90
42743;DHT22;28397;44.552;-0.848;2023-02-24T15:52:02;10.50;99.90
42743;DHT22;28397;44.552;-0.848;2023-02-24T15:54:33;10.50;99.90
42743;DHT22;28397;44.552;-0.848;2023-02-24T15:57:00;10.50;99.90
42743;DHT22;28397;44.552;-0.848;2023-02-24T15:59:27;10.50;99.90
42743;DHT22;28397;44.552;-0.848;2023-02-24T16:01:53;10.50;99.90
42743;DHT22;28397;44.552;-0.848;2023-02-24T16:04:19;10.70;99.90
42743;DHT22;28397;44.552;-0.848;2023-02-24T16:06:49;10.70;99.90
42743;DHT22;28397;44.552;-0.848;2023-02-24T16:09:32;10.80;99.90
42743;DHT22;28397;44.552;-0.848;2023-02-24T16:12:03;10.70;99.90
42743;DHT22;28397;44.552;-0.848;2023-02-24T16:14:30;10.70;99.90
42743;DHT22;28397;44.552;-0.848;2023-02-24T16:16:57;10.60;99.90
42743;DHT22;28397;44.552;-0.848;2023-02-24T16:19:23;10.50;99.90
42743;DHT22;28397;44.552;-0.848;2023-02-24T16:21:49;10.40;99.90
42743;DHT22;28397;44.552;-0.848;2023-02-24T16:24:15;10.40;99.90
42743;DHT22;28397;44.552;-0.848;2023-02-24T16:26:40;10.30;99.90
42743;DHT22;28397;44.552;-0.848;2023-02-24T16:29:09;10.30;99.90
42743;DHT22;28397;44.552;-0.848;2023-02-24T16:31:38;10.20;99.90
42743;DHT22;28397;44.552;-0.848;2023-02-24T16:34:05;10.20;99.90
42743;DHT22;28397;44.552;-0.848;2023-02-24T16:36:31;10.30;99.90
42743;DHT22;28397;44.552;-0.848;2023-02-24T16:38:56;10.20;99.90
42743;DHT22;28397;44.552;-0.848;2023-02-24T16:41:22;10.20;99.90
42743;DHT22;28397;44.552;-0.848;2023-02-24T16:43:49;10.20;99.90
42743;DHT22;28397;44.552;-0.848;2023-02-24T16:46:20;10.20;99.90
42743;DHT22;28397;44.552;-0.848;2023-02-24T16:48:48;10.10;99.90
42743;DHT22;28397;44.552;-0.848;2023-02-24T16:51:15;10.10;99.90
42743;DHT22;28397;44.552;-0.848;2023-02-24T16:53:41;10.10;99.90
42743;DHT22;28397;44.552;-0.848;2023-02-24T16:56:07;10.00;99.90
42743;DHT22;28397;44.552;-0.848;2023-02-24T16:58:33;10.00;99.90
42743;DHT22;28397;44.552;-0.848;2023-02-24T17:01:00;10.00;99.90
42743;DHT22;28397;44.552;-0.848;2023-02-24T17:04:06;10.00;99.90
42743;DHT22;28397;44.552;-0.848;2023-02-24T17:06:24;10.00;99.90
42743;DHT22;28397;44.552;-0.848;2023-02-24T17:08:50;9.90;99.90
42743;DHT22;28397;44.552;-0.848;2023-02-24T17:11:18;9.80;99.90
42743;DHT22;28397;44.552;-0.848;2023-02-24T17:13:44;9.80;99.90
42743;DHT22;28397;44.552;-0.848;2023-02-24T17:16:10;9.80;99.90
42743;DHT22;28397;44.552;-0.848;2023-02-24T17:18:36;9.80;99.90
42743;DHT22;28397;44.552;-0.848;2023-02-24T17:21:03;9.70;99.90
42743;DHT22;28397;44.552;-0.848;2023-02-24T17:23:28;9.70;99.90
42743;DHT22;28397;44.552;-0.848;2023-02-24T17:25:57;9.70;99.90
42743;DHT22;28397;44.552;-0.848;2023-02-24T17:28:23;9.60;99.90
42743;DHT22;28397;44.552;-0.848;2023-02-24T17:30:49;9.60;99.90
42743;DHT22;28397;44.552;-0.848;2023-02-24T17:33:15;9.50;99.90
42743;DHT22;28397;44.552;-0.848;2023-02-24T17:35:42;9.50;99.90
42743;DHT22;28397;44.552;-0.848;2023-02-24T17:38:15;9.50;99.90
42743;DHT22;28397;44.552;-0.848;2023-02-24T17:40:42;9.40;99.90